createdAt,value
2017-09-02T00:02:08.462Z,24.00
2017-09-02T00:04:18.435Z,23.96
2017-09-02T00:06:26.116Z,23.91
2017-09-02T00:08:32.272Z,23.90
2017-09-02T00:10:42.358Z,23.94
2017-09-02T00:12:51.853Z,23.91
2017-09-02T00:15:00.880Z,23.95
2017-09-02T00:34:25.105Z,23.83
2017-09-02T00:36:32.056Z,23.85
2017-09-02T00:38:39.025Z,23.89
2017-09-02T00:40:48.000Z,23.85
2017-09-02T00:42:55.973Z,23.88
2017-09-02T00:45:08.012Z,23.90
2017-09-02T00:47:19.514Z,23.87
2017-09-02T00:49:27.104Z,23.92
2017-09-02T00:51:35.513Z,23.91
2017-09-02T00:53:44.597Z,23.98
2017-09-02T00:55:50.490Z,23.98
2017-09-02T00:58:01.671Z,23.79
2017-09-02T01:00:13.452Z,23.79
2017-09-02T01:02:23.739Z,23.76
2017-09-02T01:04:34.712Z,23.79
2017-09-02T01:06:45.688Z,23.84
2017-09-02T01:26:09.313Z,23.86
2017-09-02T01:28:16.396Z,23.90
2017-09-02T01:30:31.403Z,23.85
2017-09-02T01:32:41.385Z,23.84
2017-09-02T01:34:51.655Z,23.80
2017-09-02T01:37:02.016Z,23.79
2017-09-02T01:39:12.301Z,23.79
2017-09-02T01:41:20.261Z,23.75
2017-09-02T01:43:28.160Z,23.80
2017-09-02T01:45:38.106Z,23.83
2017-09-02T01:47:47.641Z,23.77
2017-09-02T01:49:58.172Z,23.77
2017-09-02T01:52:10.144Z,23.79
2017-09-02T01:54:19.115Z,23.79
2017-09-02T01:56:29.089Z,23.80
2017-09-02T01:58:40.337Z,23.77
2017-09-02T02:00:51.039Z,23.80
2017-09-02T02:02:59.817Z,23.79
2017-09-02T02:22:25.781Z,23.68
2017-09-02T02:24:36.815Z,23.71
2017-09-02T02:26:44.729Z,23.70
2017-09-02T02:28:51.690Z,23.67
2017-09-02T02:30:59.893Z,23.66
2017-09-02T02:33:09.684Z,23.71
2017-09-02T02:35:17.224Z,23.70
2017-09-02T02:37:26.348Z,23.71
2017-09-02T02:39:34.451Z,23.67
2017-09-02T02:41:40.601Z,23.69
2017-09-02T02:43:46.455Z,23.64
2017-09-02T02:45:52.820Z,23.69
2017-09-02T02:48:02.970Z,23.68
2017-09-02T02:50:13.448Z,23.71
2017-09-02T02:52:23.168Z,23.71
2017-09-02T02:54:30.857Z,23.75
2017-09-02T02:56:36.096Z,23.78
2017-09-02T02:58:47.373Z,23.70
2017-09-02T03:00:55.882Z,23.73
2017-09-02T03:03:08.300Z,23.76
2017-09-02T03:05:18.266Z,23.68
2017-09-02T03:07:29.240Z,23.65
2017-09-02T03:09:37.920Z,23.73
2017-09-02T03:11:48.189Z,23.74
2017-09-02T03:13:57.162Z,23.70
2017-09-02T03:16:08.137Z,23.69
2017-09-02T03:18:19.112Z,23.69
2017-09-02T03:20:28.054Z,23.73
2017-09-02T03:22:37.795Z,23.74
2017-09-02T03:24:48.353Z,23.78
2017-09-02T03:27:00.005Z,23.75
2017-09-02T03:29:12.979Z,23.74
2017-09-02T03:31:23.952Z,23.69
2017-09-02T03:50:50.972Z,23.78
2017-09-02T03:53:03.694Z,23.77
2017-09-02T03:55:13.673Z,23.77
2017-09-02T03:57:24.642Z,23.73
2017-09-02T03:59:36.614Z,23.74
2017-09-02T04:01:47.460Z,23.74
2017-09-02T04:03:58.563Z,23.69
2017-09-02T04:06:07.246Z,23.78
2017-09-02T04:08:16.511Z,23.70
2017-09-02T04:10:25.805Z,23.72
2017-09-02T04:12:36.490Z,23.70
2017-09-02T04:14:46.468Z,23.68
2017-09-02T04:16:55.407Z,23.69
2017-09-02T04:19:05.184Z,23.67
2017-09-02T04:21:17.355Z,23.68
2017-09-02T04:23:28.330Z,23.70
2017-09-02T04:25:39.304Z,23.70
2017-09-02T04:27:47.929Z,23.69
2017-09-02T04:29:56.252Z,23.62
2017-09-02T04:32:03.218Z,23.59
2017-09-02T04:34:13.775Z,23.58
2017-09-02T04:36:21.173Z,23.63
2017-09-02T04:38:30.147Z,23.66
2017-09-02T04:40:38.594Z,23.58
2017-09-02T04:42:47.096Z,23.58
2017-09-02T04:44:54.592Z,23.57
2017-09-02T04:47:02.589Z,23.51
2017-09-02T04:49:10.691Z,23.59
2017-09-02T04:51:18.383Z,23.55
2017-09-02T04:53:23.928Z,23.66
2017-09-02T04:55:33.257Z,23.63
2017-09-02T04:57:42.590Z,23.67
2017-09-02T04:59:47.904Z,23.65
2017-09-02T05:01:56.866Z,23.52
2017-09-02T05:04:07.840Z,23.53
2017-09-02T05:06:14.873Z,23.55
2017-09-02T05:08:25.789Z,23.56
2017-09-02T05:10:35.762Z,23.61
2017-09-02T05:12:46.737Z,23.62
2017-09-02T05:14:56.314Z,23.46
2017-09-02T05:17:06.688Z,23.54
2017-09-02T05:19:13.664Z,23.55
2017-09-02T05:21:22.634Z,23.55
2017-09-02T05:23:27.800Z,23.57
2017-09-02T05:25:38.158Z,23.57
2017-09-02T05:27:47.285Z,23.53
2017-09-02T05:29:56.204Z,23.54
2017-09-02T05:32:05.508Z,23.49
2017-09-02T05:34:15.686Z,23.56
2017-09-02T05:36:22.046Z,23.59
2017-09-02T05:55:45.717Z,23.57
2017-09-02T05:57:55.154Z,23.63
2017-09-02T06:00:03.976Z,23.65
2017-09-02T06:02:10.028Z,23.65
2017-09-02T06:21:33.695Z,23.75
2017-09-02T06:23:41.393Z,23.70
2017-09-02T06:25:51.030Z,23.77
2017-09-02T06:27:58.411Z,23.76
2017-09-02T06:47:23.930Z,23.72
2017-09-02T06:49:30.907Z,23.82
2017-09-02T06:51:41.366Z,23.86
2017-09-02T06:53:49.157Z,23.83
2017-09-02T06:55:57.512Z,23.87
2017-09-02T07:15:21.036Z,23.78
2017-09-02T07:17:29.039Z,23.87
2017-09-02T07:36:54.020Z,23.95
2017-09-02T07:39:03.991Z,23.86
2017-09-02T07:41:13.965Z,23.96
2017-09-02T07:43:24.940Z,23.99
2017-09-02T07:45:31.666Z,23.95
2017-09-02T07:47:39.460Z,23.92
2017-09-02T07:49:49.862Z,23.89
2017-09-02T07:51:57.837Z,24.01
2017-09-02T07:54:05.812Z,24.06
2017-09-02T08:13:32.581Z,24.00
2017-09-02T08:32:58.992Z,23.98
2017-09-02T08:35:09.964Z,24.01
2017-09-02T08:54:35.088Z,24.00
2017-09-02T08:56:44.062Z,24.02
2017-09-02T09:16:10.940Z,24.07
2017-09-02T09:18:22.804Z,24.01
2017-09-02T09:20:35.778Z,24.02
2017-09-02T09:39:59.007Z,24.20
2017-09-02T09:42:06.494Z,24.18
2017-09-02T09:44:18.495Z,24.15
2017-09-02T09:46:28.470Z,24.05
2017-09-02T09:48:36.228Z,24.14
2017-09-02T09:50:47.417Z,24.20
2017-09-02T10:10:07.262Z,24.17
2017-09-02T10:12:17.161Z,24.24
2017-09-02T10:14:24.923Z,24.26
2017-09-02T10:16:34.973Z,24.25
2017-09-02T10:18:47.084Z,24.29
2017-09-02T10:20:54.656Z,24.30
2017-09-02T10:23:04.041Z,24.29
2017-09-02T10:25:13.218Z,24.18
2017-09-02T10:27:23.981Z,24.18
2017-09-02T10:29:36.898Z,24.18
2017-09-02T10:31:45.715Z,24.14
2017-09-02T10:33:56.489Z,24.10
2017-09-02T10:53:28.667Z,24.31
2017-09-02T10:55:36.443Z,24.23
2017-09-02T10:57:46.634Z,24.18
2017-09-02T10:59:54.183Z,24.12
2017-09-02T11:02:02.567Z,24.14
2017-09-02T11:04:13.539Z,24.17
2017-09-02T11:06:23.917Z,24.20
2017-09-02T11:08:32.493Z,24.30
2017-09-02T11:10:44.459Z,24.32
2017-09-02T11:12:53.435Z,24.30
2017-09-02T11:15:02.163Z,24.30
2017-09-02T11:17:12.010Z,24.31
2017-09-02T11:19:21.356Z,24.15
2017-09-02T11:21:28.619Z,24.16
2017-09-02T11:23:36.305Z,24.11
2017-09-02T11:25:45.031Z,24.15
2017-09-02T11:45:08.703Z,24.34
2017-09-02T11:47:17.024Z,24.36
2017-09-02T11:49:24.705Z,24.35
2017-09-02T12:08:50.423Z,24.29
2017-09-02T12:28:11.715Z,24.39
2017-09-02T12:30:21.894Z,24.43
2017-09-02T12:32:30.487Z,24.42
2017-09-02T12:34:42.464Z,24.40
2017-09-02T12:36:51.432Z,24.30
2017-09-02T12:38:58.088Z,24.35
2017-09-02T12:41:06.800Z,24.27
2017-09-02T12:43:17.357Z,24.27
2017-09-02T12:45:27.817Z,24.26
2017-09-02T12:47:40.304Z,24.34
2017-09-02T12:49:54.278Z,24.37
2017-09-02T12:52:02.468Z,24.36
2017-09-02T12:54:11.083Z,24.36
2017-09-02T12:56:20.004Z,24.38
2017-09-02T12:58:34.174Z,24.37
2017-09-02T13:00:43.075Z,24.35
2017-09-02T13:02:49.533Z,24.34
2017-09-02T13:05:00.105Z,24.31
2017-09-02T13:07:09.077Z,24.32
2017-09-02T13:09:14.560Z,24.31
2017-09-02T13:11:24.023Z,24.30
2017-09-02T13:13:33.116Z,24.30
2017-09-02T13:32:55.561Z,24.29
2017-09-02T13:52:18.590Z,24.46
2017-09-02T13:54:26.613Z,24.45
2017-09-02T13:56:33.081Z,24.41
2017-09-02T13:58:41.179Z,24.37
2017-09-02T14:00:48.159Z,24.29
2017-09-02T14:02:56.973Z,24.34
2017-09-02T14:05:07.845Z,24.37
2017-09-02T14:07:19.373Z,24.33
2017-09-02T14:09:29.677Z,24.27
2017-09-02T14:11:43.424Z,24.33
2017-09-02T14:31:11.085Z,24.20
2017-09-02T14:33:22.059Z,24.22
2017-09-02T14:35:29.643Z,24.20
2017-09-02T14:37:41.122Z,24.20
2017-09-02T14:39:52.191Z,24.25
2017-09-02T14:59:14.808Z,24.16
2017-09-02T15:01:23.727Z,24.18
2017-09-02T15:03:28.710Z,24.15
2017-09-02T15:05:35.677Z,24.19
2017-09-02T15:07:46.649Z,24.25
2017-09-02T15:09:53.304Z,24.28
2017-09-02T15:12:00.484Z,24.31
2017-09-02T15:31:20.437Z,24.20
2017-09-02T15:33:30.824Z,24.18
2017-09-02T15:35:42.319Z,24.26
2017-09-02T15:37:48.868Z,24.27
2017-09-02T15:40:00.267Z,24.25
2017-09-02T15:42:12.857Z,24.30
2017-09-02T15:44:18.908Z,24.35
2017-09-02T15:46:29.163Z,24.38
2017-09-02T15:48:39.163Z,24.23
2017-09-02T15:50:47.825Z,24.23
2017-09-02T15:52:56.114Z,24.25
2017-09-02T15:55:07.087Z,24.24
2017-09-02T15:57:20.060Z,24.24
2017-09-02T15:59:32.034Z,24.19
2017-09-02T16:01:42.028Z,24.14
2017-09-02T16:03:52.725Z,24.14
2017-09-02T16:06:01.844Z,24.18
2017-09-02T16:08:11.936Z,24.17
2017-09-02T16:10:20.612Z,24.19
2017-09-02T16:12:30.658Z,24.11
2017-09-02T16:31:56.648Z,24.14
2017-09-02T16:34:05.622Z,24.15
2017-09-02T16:36:15.595Z,24.15
2017-09-02T16:38:27.037Z,24.18
2017-09-02T16:40:39.548Z,24.16
2017-09-02T16:42:50.411Z,24.09
2017-09-02T16:45:03.492Z,24.10
2017-09-02T16:47:16.464Z,24.08
2017-09-02T16:49:28.025Z,24.03
2017-09-02T16:51:37.972Z,24.08
2017-09-02T16:53:47.387Z,24.08
2017-09-02T16:55:59.360Z,24.09
2017-09-02T16:58:11.083Z,24.08
2017-09-02T17:17:32.106Z,24.04
2017-09-02T17:36:55.053Z,23.97
2017-09-02T17:39:03.557Z,23.93
2017-09-02T17:41:13.504Z,23.98
2017-09-02T17:43:21.612Z,23.91
2017-09-02T17:45:31.552Z,23.92
2017-09-02T17:47:38.751Z,23.90
2017-09-02T18:07:03.222Z,23.93
2017-09-02T18:09:12.047Z,23.88
2017-09-02T18:11:20.249Z,23.86
2017-09-02T18:13:30.443Z,23.84
2017-09-02T18:15:42.415Z,23.86
2017-09-02T18:17:53.050Z,23.91
2017-09-02T18:37:18.164Z,23.88
2017-09-02T18:39:29.132Z,23.92
2017-09-02T18:41:39.581Z,23.86
2017-09-02T18:43:51.067Z,23.89
2017-09-02T18:45:59.888Z,23.90
2017-09-02T18:48:05.528Z,23.82
2017-09-02T18:50:11.787Z,23.81
2017-09-02T18:52:18.964Z,23.84
2017-09-02T18:54:28.953Z,23.87
2017-09-02T18:56:37.327Z,23.90
2017-09-02T18:58:44.901Z,23.82
2017-09-02T19:00:55.366Z,23.88
2017-09-02T19:03:04.854Z,23.84
2017-09-02T19:05:15.823Z,23.86
2017-09-02T19:07:27.797Z,23.83
2017-09-02T19:09:40.069Z,23.80
2017-09-02T19:11:47.862Z,23.77
2017-09-02T19:13:58.524Z,23.77
2017-09-02T19:16:05.496Z,23.77
2017-09-02T19:18:14.671Z,23.81
2017-09-02T19:20:22.643Z,23.72
2017-09-02T19:22:32.261Z,23.76
2017-09-02T19:24:40.649Z,23.76
2017-09-02T19:26:46.602Z,23.78
2017-09-02T19:28:55.648Z,23.80
2017-09-02T19:48:19.318Z,23.75
2017-09-02T19:50:28.288Z,23.74
2017-09-02T19:52:36.960Z,23.75
2017-09-02T19:54:46.798Z,23.71
2017-09-02T19:56:55.107Z,23.73
2017-09-02T20:16:20.982Z,23.57
2017-09-02T20:18:30.987Z,23.57
2017-09-02T20:20:39.934Z,23.62
2017-09-02T20:40:01.627Z,23.57
2017-09-02T20:42:12.673Z,23.57
2017-09-02T20:44:22.847Z,23.54
2017-09-02T20:46:33.409Z,23.57
2017-09-02T20:48:40.599Z,23.57
2017-09-02T20:50:50.122Z,23.58
2017-09-02T20:52:58.548Z,23.56
2017-09-02T20:55:05.097Z,23.55
2017-09-02T20:57:12.384Z,23.53
2017-09-02T20:59:20.275Z,23.54
2017-09-02T21:01:33.440Z,23.52
2017-09-02T21:03:44.264Z,23.54
2017-09-02T21:05:50.034Z,23.55
2017-09-02T21:07:57.906Z,23.57
2017-09-02T21:10:07.135Z,23.56
2017-09-02T21:29:29.990Z,23.48
2017-09-02T21:31:39.628Z,23.48
2017-09-02T21:33:50.594Z,23.43
2017-09-02T21:36:02.029Z,23.45
2017-09-02T21:38:13.973Z,23.41
2017-09-02T21:40:22.789Z,23.37
2017-09-02T21:42:31.813Z,23.38
2017-09-02T21:44:38.927Z,23.43
2017-09-02T21:46:48.119Z,23.45
2017-09-02T21:48:58.577Z,23.41
2017-09-02T21:51:11.602Z,23.39
2017-09-02T21:53:18.465Z,23.39
2017-09-02T22:12:41.522Z,23.27
2017-09-02T22:14:50.568Z,23.28
2017-09-02T22:17:01.107Z,23.28
2017-09-02T22:19:08.521Z,23.23
2017-09-02T22:21:19.491Z,23.23
2017-09-02T22:23:26.465Z,23.27
2017-09-02T22:25:33.489Z,23.34
2017-09-02T22:27:42.950Z,23.35
2017-09-02T22:29:52.390Z,23.32
2017-09-02T22:32:03.361Z,23.31
2017-09-02T22:34:13.339Z,23.28
2017-09-02T22:36:21.312Z,23.23
2017-09-02T22:38:29.094Z,23.26
2017-09-02T22:40:39.262Z,23.30
2017-09-02T22:42:45.606Z,23.30
2017-09-02T22:44:56.877Z,23.22
2017-09-02T22:47:02.203Z,23.26
2017-09-02T22:49:08.680Z,23.25
2017-09-02T22:51:16.133Z,23.24
2017-09-02T22:53:26.217Z,23.23
2017-09-02T22:55:35.444Z,23.22
2017-09-02T22:57:46.054Z,23.23
2017-09-02T22:59:54.107Z,23.27
2017-09-02T23:02:05.794Z,23.34
2017-09-02T23:04:14.715Z,23.30
2017-09-02T23:06:26.950Z,23.17
2017-09-02T23:08:34.924Z,23.20
2017-09-02T23:10:44.139Z,23.20
2017-09-02T23:12:52.880Z,23.22
2017-09-02T23:15:02.850Z,23.23
2017-09-02T23:17:14.880Z,23.20
2017-09-02T23:19:22.798Z,23.17
2017-09-02T23:21:28.823Z,23.11
2017-09-02T23:23:37.362Z,23.15
2017-09-02T23:25:43.623Z,23.19
2017-09-02T23:27:52.693Z,23.24
2017-09-02T23:30:00.668Z,23.24
2017-09-02T23:32:08.749Z,23.19
2017-09-02T23:34:18.616Z,23.17
2017-09-02T23:36:30.274Z,23.12
2017-09-02T23:55:57.124Z,23.06
2017-09-02T23:58:07.895Z,23.09
